Time;durP1;ratioP1;P1;durP2;ratioP2;P2;SDS_P1;SDS_P2;PMS_P1;PMS_P2;Temp;Humidity;BMP_temperature;BMP_pressure;BME280_temperature;BME280_humidity;BME280_pressure;Samples;Min_cycle;Max_cycle;Signal;HPM_P1;HPM_P2
2021/12/26 00:03:13;;;;;;;174.82;85.15;;;;;;;-4.55;74.89;100116.92;3019271;78;21042;-77
2021/12/26 00:07:17;;;;;;;148.82;82.40;;;;;;;-4.53;75.04;100108.66;3002050;77;21555;-77
2021/12/26 00:11:25;;;;;;;140.92;78.97;;;;;;;-4.53;74.78;100103.00;2985227;77;20991;-75
2021/12/26 00:15:29;;;;;;;168.05;83.95;;;;;;;-4.54;74.91;100103.05;2965647;80;21002;-77
2021/12/26 00:19:35;;;;;;;153.85;75.87;;;;;;;-4.56;74.84;100105.67;2965719;79;21030;-77
2021/12/26 00:23:40;;;;;;;159.25;81.63;;;;;;;-4.63;74.55;100102.35;2967389;77;21011;-76
2021/12/26 00:27:46;;;;;;;139.12;72.90;;;;;;;-4.67;74.21;100106.38;2974882;78;21022;-77
2021/12/26 00:31:52;;;;;;;96.25;52.85;;;;;;;-4.71;74.02;100100.84;2965371;79;21046;-75
2021/12/26 00:35:57;;;;;;;106.83;52.85;;;;;;;-4.79;73.83;100103.60;2966118;80;21577;-77
2021/12/26 00:39:58;;;;;;;136.67;69.10;;;;;;;-4.86;73.95;100102.88;2968670;77;21689;-77
2021/12/26 00:44:02;;;;;;;126.45;69.27;;;;;;;-4.82;74.18;100099.31;2981289;78;21010;-77
2021/12/26 00:48:07;;;;;;;127.17;67.80;;;;;;;-4.82;73.79;100104.51;2965333;79;21034;-75
2021/12/26 00:52:09;;;;;;;126.30;60.30;;;;;;;-4.90;73.76;100101.23;2965728;80;21492;-74
2021/12/26 00:56:11;;;;;;;132.82;70.75;;;;;;;-5.23;73.90;100097.97;2968770;77;20979;-77
2021/12/26 01:00:19;;;;;;;119.35;68.80;;;;;;;-5.25;74.84;100101.50;2984044;78;21487;-71
2021/12/26 01:04:23;;;;;;;117.80;66.12;;;;;;;-5.23;75.04;100107.05;2965937;79;21096;-75
2021/12/26 01:08:31;;;;;;;115.77;66.55;;;;;;;-5.24;75.39;100111.83;2966116;80;21014;-76
2021/12/26 01:12:33;;;;;;;;;;;;;;;-5.17;75.29;100106.08;2995736;77;21025;-76
2021/12/26 01:16:36;;;;;;;128.50;71.45;;;;;;;-5.12;74.86;100113.78;3001649;78;20145;-75
2021/12/26 01:20:52;;;;;;;137.30;76.80;;;;;;;-5.19;74.21;100103.53;3003358;79;21049;-74
2021/12/26 01:25:01;;;;;;;146.40;74.17;;;;;;;-5.18;74.75;100098.76;3002557;79;21577;-76
2021/12/26 01:28:57;;;;;;;133.63;68.55;;;;;;;-5.13;74.41;100103.83;3018886;77;21100;-69
2021/12/26 01:33:00;;;;;;;140.07;72.03;;;;;;;-5.08;74.12;100098.56;3003904;77;21057;-75
2021/12/26 01:37:04;;;;;;;156.20;72.15;;;;;;;-5.08;73.80;100102.02;3030529;78;20995;-76
2021/12/26 01:41:09;;;;;;;147.25;78.80;;;;;;;-5.11;73.53;100105.98;3037425;77;21058;-72
2021/12/26 01:45:11;;;;;;;158.32;75.35;;;;;;;-5.23;73.77;100095.38;3019344;77;21065;-73
2021/12/26 01:49:20;;;;;;;160.60;76.65;;;;;;;-5.27;73.99;100093.73;3019419;77;21065;-73
2021/12/26 01:53:34;;;;;;;156.90;80.75;;;;;;;-5.27;73.99;100089.01;3036774;78;21014;-73
2021/12/26 01:57:31;;;;;;;147.78;77.50;;;;;;;-5.32;73.83;100095.11;3036758;77;21566;-76
2021/12/26 02:01:33;;;;;;;147.85;81.20;;;;;;;-5.29;73.69;100090.78;3036778;77;20994;-73
2021/12/26 02:05:35;;;;;;;150.27;81.47;;;;;;;-5.32;73.57;100083.91;3040123;77;21003;-69
2021/12/26 02:09:39;;;;;;;140.85;74.00;;;;;;;-5.35;73.28;100082.67;3077980;77;20986;-76
2021/12/26 02:13:40;;;;;;;133.97;70.75;;;;;;;-5.43;73.83;100084.11;2983281;77;20991;-72
2021/12/26 02:17:42;;;;;;;130.10;69.05;;;;;;;-5.49;74.37;100078.59;3014309;78;21018;-74
2021/12/26 02:30:17;;;;;;;152.25;75.25;;;;;;;-5.54;74.42;100093.39;2999108;78;21069;-76
2021/12/26 02:34:20;;;;;;;162.22;80.85;;;;;;;-5.54;74.67;100095.98;3032037;78;21014;-73
2021/12/26 02:38:22;;;;;;;142.50;79.05;;;;;;;-5.56;74.54;100094.29;2981848;77;21073;-73
2021/12/26 02:42:25;;;;;;;162.35;81.85;;;;;;;-5.60;74.75;100096.07;2978431;80;21549;-74
2021/12/26 02:46:30;;;;;;;172.13;85.87;;;;;;;-5.63;74.61;100100.89;2978369;79;21010;-74
2021/12/26 02:50:32;;;;;;;168.72;86.42;;;;;;;-5.66;74.56;100087.99;2977426;80;20971;-75
2021/12/26 02:54:34;;;;;;;169.97;85.72;;;;;;;-5.68;74.47;100088.47;2978408;79;21030;-75
2021/12/26 02:58:35;;;;;;;149.62;78.95;;;;;;;-5.72;74.52;100090.67;2978221;80;21058;-75
2021/12/26 03:02:48;;;;;;;165.43;79.22;;;;;;;-5.71;74.49;100094.13;2978685;79;21002;-75
2021/12/26 03:07:01;;;;;;;158.60;76.33;;;;;;;-5.71;74.28;100094.97;2978410;79;21014;-74
2021/12/26 03:10:54;;;;;;;150.38;80.75;;;;;;;-5.72;74.14;100091.13;2976477;79;21003;-69
2021/12/26 03:14:56;;;;;;;189.82;81.02;;;;;;;-5.72;74.10;100091.97;2978437;79;22114;-70
2021/12/26 03:19:01;;;;;;;142.05;68.35;;;;;;;-5.77;73.89;100091.20;2978840;79;20935;-75
2021/12/26 03:23:03;;;;;;;150.87;82.47;;;;;;;-5.85;73.63;100100.86;2978276;79;21261;-75
2021/12/26 03:27:06;;;;;;;155.85;80.28;;;;;;;-5.91;74.10;100092.28;2977405;79;21062;-74
2021/12/26 03:31:08;;;;;;;145.28;74.05;;;;;;;-5.92;74.19;100094.92;2974951;80;21009;-69
2021/12/26 03:35:11;;;;;;;141.12;75.03;;;;;;;-5.92;74.21;100098.81;2974883;80;21072;-75
2021/12/26 03:39:15;;;;;;;134.80;74.47;;;;;;;-5.90;74.05;100103.52;2974643;80;21072;-73
2021/12/26 03:43:17;;;;;;;134.65;70.22;;;;;;;-5.91;74.07;100105.23;2973728;79;21042;-74
2021/12/26 03:47:19;;;;;;;145.47;73.33;;;;;;;-5.88;73.81;100097.44;2973879;80;21041;-74
2021/12/26 03:51:21;;;;;;;137.37;68.33;;;;;;;-5.91;73.60;100097.47;2974318;79;21050;-75
2021/12/26 03:55:25;;;;;;;131.00;68.92;;;;;;;-5.89;73.96;100100.92;2974237;80;21010;-74
2021/12/26 03:59:28;;;;;;;121.35;68.70;;;;;;;-5.85;73.79;100106.88;2981933;78;21018;-75
2021/12/26 04:03:30;;;;;;;134.72;66.22;;;;;;;-5.80;73.71;100105.05;2980774;78;21014;-74
2021/12/26 04:07:32;;;;;;;141.90;72.20;;;;;;;-5.76;73.46;100109.75;2973840;79;21070;-73
2021/12/26 04:11:36;;;;;;;131.60;68.30;;;;;;;-5.72;73.24;100106.68;2974602;80;21029;-70
2021/12/26 04:15:37;;;;;;;140.45;65.75;;;;;;;-5.79;73.23;100112.41;2999034;78;21002;-69
2021/12/26 04:19:40;;;;;;;144.32;74.30;;;;;;;-5.86;73.36;100105.17;3027729;78;21029;-74
2021/12/26 04:23:42;;;;;;;129.32;67.05;;;;;;;-5.85;73.57;100109.92;3028153;78;21041;-75
2021/12/26 04:27:44;;;;;;;140.82;76.28;;;;;;;-5.90;73.31;100112.13;3030495;77;21088;-71
2021/12/26 04:31:45;;;;;;;138.30;77.00;;;;;;;-5.96;73.36;100117.88;3032219;78;21062;-74
2021/12/26 04:35:49;;;;;;;161.90;86.37;;;;;;;-6.09;73.37;100115.51;3032334;78;20986;-74
2021/12/26 04:39:51;;;;;;;156.35;86.05;;;;;;;-6.13;73.12;100112.98;3032216;77;21018;-69
2021/12/26 04:43:52;;;;;;;161.40;80.70;;;;;;;-6.16;73.10;100121.67;3031977;78;21069;-75
2021/12/26 04:47:54;;;;;;;151.93;75.50;;;;;;;-6.21;73.31;100129.50;3032666;78;21018;-73
2021/12/26 04:51:56;;;;;;;131.72;74.20;;;;;;;-6.19;73.52;100126.88;3032207;77;21002;-72
2021/12/26 04:55:58;;;;;;;143.10;77.42;;;;;;;-6.19;73.92;100129.04;3026723;77;21045;-74
2021/12/26 05:00:00;;;;;;;136.92;75.40;;;;;;;-6.18;73.89;100132.05;3020679;78;20974;-75
2021/12/26 05:04:03;;;;;;;126.92;71.75;;;;;;;-6.20;73.78;100129.92;3029812;78;20975;-75
2021/12/26 05:08:06;;;;;;;134.22;74.15;;;;;;;-6.20;73.76;100131.22;3011570;77;21029;-75
2021/12/26 05:12:09;;;;;;;131.03;74.17;;;;;;;-6.18;73.61;100135.09;3002852;77;21018;-73
2021/12/26 05:16:11;;;;;;;157.15;77.53;;;;;;;-6.26;73.18;100137.79;3005165;78;20947;-75
2021/12/26 05:20:13;;;;;;;148.70;79.40;;;;;;;-6.33;73.48;100142.63;3022961;77;21025;-73
2021/12/26 05:24:14;;;;;;;137.07;70.90;;;;;;;-6.48;73.53;100151.05;2993994;77;21582;-75
2021/12/26 05:28:18;;;;;;;132.63;71.22;;;;;;;-6.63;73.65;100142.19;3025174;77;21014;-70
2021/12/26 05:32:19;;;;;;;127.87;69.00;;;;;;;-6.99;74.62;100140.48;3004598;77;21002;-72
2021/12/26 05:36:21;;;;;;;142.90;78.62;;;;;;;-7.10;74.77;100139.31;2998525;78;20975;-72
2021/12/26 05:40:22;;;;;;;134.90;66.45;;;;;;;-7.04;75.60;100137.94;3018648;77;21554;-68
2021/12/26 05:44:24;;;;;;;152.75;86.02;;;;;;;-6.96;75.51;100140.44;3020969;78;21570;-73
2021/12/26 05:48:26;;;;;;;139.90;82.90;;;;;;;-6.88;75.45;100139.89;3009169;78;20987;-71
2021/12/26 05:52:28;;;;;;;151.25;81.12;;;;;;;-6.77;75.47;100139.79;2970378;77;21054;-73
2021/12/26 05:56:30;;;;;;;123.25;66.05;;;;;;;-6.70;75.38;100140.54;2967702;79;21067;-74
2021/12/26 06:00:33;;;;;;;121.65;65.67;;;;;;;-6.76;74.76;100134.58;2970044;77;20998;-75
2021/12/26 06:04:35;;;;;;;129.30;68.25;;;;;;;-6.94;75.18;100129.63;3012207;78;21011;-72
2021/12/26 06:08:37;;;;;;;122.53;61.23;;;;;;;-7.07;76.25;100133.68;3058686;77;21042;-74
2021/12/26 06:12:39;;;;;;;131.18;65.85;;;;;;;-6.98;76.37;100132.69;3010268;77;21002;-75
2021/12/26 06:16:44;;;;;;;129.68;69.15;;;;;;;-6.87;76.60;100137.76;2966974;79;21018;-73
2021/12/26 06:20:50;;;;;;;98.35;60.17;;;;;;;-6.72;76.47;100135.41;2986674;77;21022;-71
2021/12/26 06:24:52;;;;;;;62.00;35.53;;;;;;;-6.66;75.92;100139.65;2999400;78;21073;-74
2021/12/26 06:28:54;;;;;;;109.10;58.68;;;;;;;-6.74;75.51;100143.17;2976082;78;21061;-72
2021/12/26 06:32:55;;;;;;;110.52;62.13;;;;;;;-6.68;76.13;100151.72;2977449;79;21006;-75
2021/12/26 06:36:57;;;;;;;92.78;50.92;;;;;;;-6.59;76.01;100139.97;2977558;80;21041;-73
2021/12/26 06:41:02;;;;;;;85.47;51.90;;;;;;;-6.50;75.46;100128.19;2978020;79;21010;-75
2021/12/26 06:45:10;;;;;;;93.07;50.10;;;;;;;-6.39;74.96;100131.91;2988080;78;21057;-69
2021/12/26 06:49:17;;;;;;;85.47;42.35;;;;;;;-6.49;74.22;100127.76;3031136;77;21042;-74
2021/12/26 06:53:19;;;;;;;96.15;52.20;;;;;;;-6.68;74.07;100142.24;3031528;77;21069;-75
2021/12/26 06:57:24;;;;;;;82.42;44.15;;;;;;;-6.70;74.79;100141.41;3032067;77;21022;-73
2021/12/26 07:01:30;;;;;;;83.90;43.35;;;;;;;-6.55;75.47;100145.97;3021147;77;21002;-72
2021/12/26 07:05:33;;;;;;;;;;;;;;;-6.44;75.12;100151.00;2987487;78;21002;-72
2021/12/26 07:09:35;;;;;;;94.05;46.37;;;;;;;-6.43;74.55;100157.88;3030368;78;20084;-71
2021/12/26 07:13:36;;;;;;;107.35;54.40;;;;;;;-6.47;74.63;100155.34;3031766;77;21018;-74
2021/12/26 07:17:40;;;;;;;111.10;54.80;;;;;;;-6.47;74.94;100161.81;3031458;77;20998;-67
2021/12/26 07:21:42;;;;;;;110.55;57.53;;;;;;;-6.40;74.49;100172.08;3031411;78;21531;-77
2021/12/26 07:25:44;;;;;;;125.10;58.17;;;;;;;-6.39;74.35;100166.02;3026055;77;20959;-76
2021/12/26 07:29:46;;;;;;;113.05;59.73;;;;;;;-6.37;74.55;100171.60;3002512;78;21034;-77
2021/12/26 07:33:47;;;;;;;140.15;79.97;;;;;;;-6.30;74.98;100173.64;2978628;77;21037;-74
2021/12/26 07:37:53;;;;;;;168.13;96.15;;;;;;;-6.24;74.92;100179.17;3009451;78;21080;-76
2021/12/26 07:41:56;;;;;;;192.55;93.47;;;;;;;-6.22;74.60;100180.88;2977381;79;21417;-67
2021/12/26 07:46:03;;;;;;;175.50;96.57;;;;;;;-6.23;75.12;100184.34;3018935;78;21077;-75
2021/12/26 07:50:11;;;;;;;175.68;102.80;;;;;;;-6.26;74.96;100189.58;3031611;77;21030;-75
2021/12/26 07:54:15;;;;;;;148.32;83.87;;;;;;;-6.40;75.20;100188.91;3031482;77;21020;-76
2021/12/26 07:58:20;;;;;;;148.95;82.05;;;;;;;-6.31;75.47;100190.05;3017591;77;21547;-76
2021/12/26 08:02:28;;;;;;;168.75;90.32;;;;;;;-6.26;75.92;100190.87;2977593;80;21021;-77
2021/12/26 08:06:33;;;;;;;146.07;80.60;;;;;;;-6.26;75.78;100196.05;3006806;77;21029;-72
2021/12/26 08:10:37;;;;;;;167.03;85.03;;;;;;;-6.20;75.85;100195.08;3067863;77;20990;-79
2021/12/26 08:14:42;;;;;;;154.00;77.67;;;;;;;-6.14;75.92;100191.55;3029477;77;21033;-79
2021/12/26 08:18:48;;;;;;;164.80;82.95;;;;;;;-6.07;76.19;100186.27;3009283;77;21049;-71
2021/12/26 08:22:50;;;;;;;174.55;91.87;;;;;;;-5.91;76.26;100182.95;3014988;78;20994;-73
2021/12/26 08:26:52;;;;;;;151.20;83.62;;;;;;;-5.81;76.43;100182.83;3021007;78;21101;-72
2021/12/26 08:30:54;;;;;;;150.65;84.30;;;;;;;-5.70;76.69;100171.83;3000668;78;21054;-77
2021/12/26 08:34:59;;;;;;;145.12;82.12;;;;;;;-5.56;76.76;100174.64;2976407;79;20998;-77
2021/12/26 08:39:03;;;;;;;124.38;75.12;;;;;;;-5.41;77.24;100166.60;2975606;79;21010;-77
2021/12/26 08:43:07;;;;;;;121.85;68.10;;;;;;;-5.25;77.69;100171.06;2975642;80;21061;-79
2021/12/26 08:47:13;;;;;;;112.45;64.32;;;;;;;-5.12;78.04;100172.98;2977013;79;20959;-79
2021/12/26 08:51:15;;;;;;;120.77;61.92;;;;;;;-4.92;78.25;100170.44;2977900;80;21057;-77
2021/12/26 08:55:19;;;;;;;134.15;65.10;;;;;;;-4.72;78.40;100170.05;3013847;77;21050;-77
2021/12/26 08:59:30;;;;;;;84.35;44.67;;;;;;;-4.50;78.18;100169.17;2980478;77;21029;-77
2021/12/26 09:03:25;;;;;;;75.00;42.95;;;;;;;-4.30;78.41;100166.13;2984650;77;21077;-78
2021/12/26 09:07:28;;;;;;;69.55;41.50;;;;;;;-4.13;78.03;100177.88;2983960;77;21026;-75
2021/12/26 09:11:33;;;;;;;66.00;38.25;;;;;;;-3.98;77.49;100179.26;3013168;77;21069;-78
2021/12/26 09:15:42;;;;;;;67.32;38.00;;;;;;;-3.81;78.13;100182.78;3022837;77;21026;-78
2021/12/26 09:19:45;;;;;;;68.20;37.85;;;;;;;-3.66;77.66;100194.55;3012168;77;20979;-77
2021/12/26 09:23:51;;;;;;;66.95;35.50;;;;;;;-3.51;77.50;100195.90;3005685;77;21364;-77
2021/12/26 09:27:58;;;;;;;70.40;41.25;;;;;;;-3.36;77.06;100191.21;3023510;77;21040;-71
2021/12/26 09:32:02;;;;;;;70.40;32.73;;;;;;;-3.26;76.67;100197.03;3017993;78;21052;-71
2021/12/26 09:36:07;;;;;;;66.50;37.73;;;;;;;-3.11;77.09;100195.33;2987179;77;21065;-77
2021/12/26 09:40:14;;;;;;;63.30;33.08;;;;;;;-2.99;75.74;100202.38;2973849;77;21022;-75
2021/12/26 09:44:18;;;;;;;57.93;29.67;;;;;;;-2.93;74.30;100187.45;2969626;78;21820;-77
2021/12/26 09:48:20;;;;;;;61.73;35.45;;;;;;;-3.04;74.83;100193.42;3018898;78;20974;-79
2021/12/26 09:52:23;;;;;;;70.08;32.17;;;;;;;-3.03;74.95;100186.86;3001670;77;21121;-77
2021/12/26 09:56:26;;;;;;;67.62;32.45;;;;;;;-3.19;76.19;100186.42;3008305;77;21523;-73
2021/12/26 10:00:41;;;;;;;58.25;30.57;;;;;;;-3.07;76.66;100177.44;3018258;78;21034;-78
2021/12/26 10:04:44;;;;;;;42.40;23.98;;;;;;;-3.09;76.14;100170.12;2964952;79;21018;-77
2021/12/26 10:09:01;;;;;;;43.48;28.20;;;;;;;-3.17;75.94;100167.72;3018864;77;20995;-79
2021/12/26 10:13:03;;;;;;;40.67;21.27;;;;;;;-3.05;76.91;100156.55;2978529;78;21515;-77
2021/12/26 10:17:09;;;;;;;39.70;18.98;;;;;;;-2.98;77.03;100163.75;3012832;78;20951;-75
2021/12/26 10:21:27;;;;;;;57.30;30.62;;;;;;;-2.94;76.79;100167.53;2978588;78;21457;-72
2021/12/26 10:25:35;;;;;;;53.52;23.52;;;;;;;-2.69;76.14;100168.59;2967237;80;32111;-72
2021/12/26 10:29:53;;;;;;;39.75;21.37;;;;;;;-2.47;75.33;100163.16;2964911;79;21074;-70
2021/12/26 10:33:55;;;;;;;39.98;23.25;;;;;;;-2.33;74.10;100159.29;2991420;78;21072;-68
2021/12/26 10:37:57;;;;;;;35.83;21.95;;;;;;;-2.10;73.38;100162.94;2966362;79;20931;-69
2021/12/26 10:42:03;;;;;;;32.05;20.80;;;;;;;-1.99;73.41;100162.59;2989054;78;21007;-69
2021/12/26 10:46:15;;;;;;;32.25;19.32;;;;;;;-1.86;73.86;100166.53;2960328;80;21090;-75
2021/12/26 10:50:20;;;;;;;30.12;20.37;;;;;;;-1.79;73.05;100164.11;2961820;79;21085;-75
2021/12/26 10:54:26;;;;;;;40.80;23.43;;;;;;;-1.69;71.97;100169.88;2962459;79;21034;-74
2021/12/26 10:58:27;;;;;;;28.03;21.47;;;;;;;-1.63;71.76;100172.27;3004611;77;21447;-68
2021/12/26 11:02:31;;;;;;;119.02;57.43;;;;;;;-1.61;70.73;100161.33;2994740;77;21502;-75
2021/12/26 11:06:50;;;;;;;137.57;68.52;;;;;;;-1.65;70.78;100161.51;2998708;77;21011;-68
2021/12/26 11:10:54;;;;;;;72.85;36.17;;;;;;;-1.62;71.65;100157.02;3004820;77;21006;-66
2021/12/26 11:15:01;;;;;;;44.23;21.95;;;;;;;-1.69;72.08;100163.36;3011069;77;20978;-68
2021/12/26 11:19:03;;;;;;;58.68;30.40;;;;;;;-1.67;71.08;100164.16;3013775;77;21048;-75
2021/12/26 11:23:14;;;;;;;36.70;24.67;;;;;;;-1.51;71.14;100164.95;3001270;77;21048;-76
2021/12/26 11:27:16;;;;;;;38.83;21.23;;;;;;;-1.46;70.17;100157.81;3016121;78;21073;-77
2021/12/26 11:31:24;;;;;;;55.98;30.77;;;;;;;-1.44;69.70;100160.78;3007547;77;21493;-70
2021/12/26 11:35:30;;;;;;;64.55;36.38;;;;;;;-1.38;70.29;100154.48;2963021;79;21046;-74
2021/12/26 11:39:32;;;;;;;43.58;22.15;;;;;;;-1.42;68.59;100150.27;2960807;79;21010;-78
2021/12/26 11:44:10;;;;;;;34.05;23.30;;;;;;;-1.33;68.17;100152.59;2950555;80;21057;-74
2021/12/26 11:48:46;;;;;;;26.07;15.83;;;;;;;-1.33;67.76;100143.45;2968273;78;21077;-77
2021/12/26 11:53:02;;;;;;;79.05;36.50;;;;;;;-1.26;66.17;100144.53;3016716;78;21042;-78
2021/12/26 11:57:38;;;;;;;74.53;40.33;;;;;;;-1.30;66.95;100134.20;2978058;78;21472;-75
2021/12/26 12:01:47;;;;;;;51.42;24.60;;;;;;;-1.24;66.75;100142.72;2974319;78;20999;-73
2021/12/26 12:05:51;;;;;;;39.63;18.90;;;;;;;-1.27;65.67;100137.17;3015487;78;21022;-69
2021/12/26 12:09:52;;;;;;;79.32;44.58;;;;;;;-1.24;67.78;100133.58;3007066;78;21042;-70
2021/12/26 12:13:54;;;;;;;49.63;29.18;;;;;;;-1.24;65.44;100133.14;2968338;78;21050;-72
2021/12/26 12:18:14;;;;;;;61.40;35.43;;;;;;;-1.25;65.62;100130.58;2960010;80;21085;-69
2021/12/26 12:22:15;;;;;;;44.38;27.40;;;;;;;-1.18;66.71;100129.44;2960083;80;21438;-77
2021/12/26 12:26:22;;;;;;;48.65;29.23;;;;;;;-1.07;67.80;100132.53;3006455;78;21084;-76
2021/12/26 12:30:27;;;;;;;38.23;22.73;;;;;;;-1.07;66.44;100136.91;2943897;77;21042;-74
2021/12/26 12:34:46;;;;;;;33.15;22.02;;;;;;;-1.05;66.91;100141.63;3002749;77;21089;-70
2021/12/26 12:38:50;;;;;;;38.73;25.10;;;;;;;-1.10;66.14;100131.34;3007775;77;20959;-76
2021/12/26 12:43:15;;;;;;;44.13;23.52;;;;;;;-1.03;66.87;100124.98;3009179;77;21046;-70
2021/12/26 12:47:24;;;;;;;53.28;29.05;;;;;;;-1.12;66.68;100130.98;3022931;78;20995;-77
2021/12/26 12:51:38;;;;;;;42.67;26.23;;;;;;;-1.20;66.87;100121.68;3022559;78;21014;-76
2021/12/26 12:55:50;;;;;;;35.95;23.45;;;;;;;-1.20;67.25;100118.20;3016099;77;21535;-72
2021/12/26 12:59:51;;;;;;;48.87;23.90;;;;;;;-1.15;68.61;100113.69;2995482;77;21022;-80
2021/12/26 13:03:59;;;;;;;31.85;21.25;;;;;;;-1.15;68.61;100113.69;2993092;77;21053;-73
2021/12/26 13:08:11;;;;;;;42.95;26.35;;;;;;;-1.23;68.70;100111.36;2978557;77;21026;-68
2021/12/26 13:12:13;;;;;;;47.13;25.85;;;;;;;-1.26;68.51;100107.55;2974495;80;21065;-73
2021/12/26 13:16:15;;;;;;;34.13;16.25;;;;;;;-1.28;69.06;100105.89;2974664;80;21037;-74
2021/12/26 13:20:21;;;;;;;38.38;20.45;;;;;;;-1.32;68.31;100114.27;2974426;80;21054;-75
2021/12/26 13:24:35;;;;;;;30.67;19.00;;;;;;;-1.36;67.60;100108.33;2974962;80;20983;-74
2021/12/26 13:28:37;;;;;;;39.95;20.23;;;;;;;-1.38;68.62;100107.50;2973944;80;21184;-73
2021/12/26 13:32:41;;;;;;;29.92;17.70;;;;;;;-1.35;69.25;100105.25;2968637;80;22088;-74
2021/12/26 13:36:42;;;;;;;32.23;18.27;;;;;;;-1.34;68.59;100104.34;2969621;80;21005;-74
2021/12/26 13:40:49;;;;;;;35.03;17.87;;;;;;;-1.31;68.76;100101.19;2969220;80;20963;-73
2021/12/26 13:44:50;;;;;;;26.17;15.05;;;;;;;-1.26;68.44;100093.64;2969539;79;21054;-73
2021/12/26 13:48:56;;;;;;;39.88;23.12;;;;;;;-1.42;68.48;100096.78;2969266;80;21402;-72
2021/12/26 13:53:05;;;;;;;32.53;19.70;;;;;;;-1.42;68.48;100096.78;2949456;80;21031;-73
2021/12/26 13:57:13;;;;;;;35.50;20.75;;;;;;;-1.42;69.38;100105.92;2969107;80;20994;-73
2021/12/26 14:01:14;;;;;;;47.15;28.80;;;;;;;-1.49;69.29;100104.44;2968417;79;20991;-74
2021/12/26 14:05:18;;;;;;;41.48;23.75;;;;;;;-1.45;70.53;100100.81;2968382;79;21851;-73
2021/12/26 14:09:19;;;;;;;100.47;49.95;;;;;;;-1.49;70.54;100107.05;2967608;79;21050;-73
2021/12/26 14:13:21;;;;;;;59.77;32.35;;;;;;;-1.50;71.00;100106.18;2967199;80;21018;-74
2021/12/26 14:17:23;;;;;;;57.95;29.98;;;;;;;-1.53;70.56;100108.06;2968985;80;21559;-73
2021/12/26 14:21:24;;;;;;;58.83;30.32;;;;;;;-1.61;70.49;100099.20;2968778;80;21002;-74
2021/12/26 14:25:26;;;;;;;43.15;22.60;;;;;;;-1.63;70.55;100100.54;2968157;79;20990;-73
2021/12/26 14:29:29;;;;;;;46.60;24.85;;;;;;;-1.65;70.27;100103.66;2970911;80;21010;-73
2021/12/26 14:33:47;;;;;;;52.33;27.05;;;;;;;-1.68;70.53;100102.46;2978529;80;21062;-74
2021/12/26 14:37:48;;;;;;;33.15;22.58;;;;;;;-1.77;70.45;100104.06;2979457;79;21042;-75
2021/12/26 14:41:52;;;;;;;42.90;24.75;;;;;;;-1.91;70.78;100096.27;2979770;80;20998;-73
2021/12/26 14:46:01;;;;;;;30.08;20.25;;;;;;;-2.01;71.13;100100.94;2977948;79;21014;-74
2021/12/26 14:50:16;;;;;;;45.55;25.45;;;;;;;-2.09;71.81;100108.59;2978790;80;21022;-73
2021/12/26 14:54:18;;;;;;;50.52;25.02;;;;;;;-2.15;72.18;100113.55;2979435;79;21042;-73
2021/12/26 14:58:20;;;;;;;40.52;25.60;;;;;;;-2.20;72.58;100118.91;2979223;80;21050;-74
2021/12/26 15:02:27;;;;;;;40.70;23.62;;;;;;;-2.26;72.93;100118.23;2979325;79;21069;-73
2021/12/26 15:06:29;;;;;;;45.08;23.18;;;;;;;-2.30;73.12;100121.41;2977955;79;21037;-72
2021/12/26 15:10:44;;;;;;;39.20;23.47;;;;;;;-2.32;72.67;100127.95;2978820;80;21045;-74
2021/12/26 15:14:46;;;;;;;43.77;26.63;;;;;;;-2.34;72.53;100125.02;2978320;79;21054;-73
2021/12/26 15:18:53;;;;;;;37.55;24.77;;;;;;;-2.45;72.84;100119.67;2977877;80;21050;-73
2021/12/26 15:23:02;;;;;;;36.55;23.70;;;;;;;-2.53;73.29;100119.06;2977822;79;21101;-71
2021/12/26 15:27:06;;;;;;;43.75;25.30;;;;;;;-2.55;73.43;100128.69;2978324;79;21034;-68
2021/12/26 15:31:15;;;;;;;53.63;30.45;;;;;;;-2.57;73.33;100132.22;2987683;78;20999;-74
2021/12/26 15:35:17;;;;;;;46.65;26.05;;;;;;;-2.65;73.28;100130.71;3021606;78;21026;-74
2021/12/26 15:39:21;;;;;;;49.13;27.25;;;;;;;-2.73;72.68;100130.94;3021700;78;21002;-74
2021/12/26 15:43:22;;;;;;;45.67;24.45;;;;;;;-2.85;72.88;100133.02;3022223;78;21026;-73
2021/12/26 15:47:24;;;;;;;48.13;27.62;;;;;;;-2.92;73.11;100137.56;3022019;78;21460;-71
2021/12/26 15:51:26;;;;;;;49.45;28.77;;;;;;;-2.94;73.27;100134.16;3022031;78;21629;-71
2021/12/26 15:55:29;;;;;;;50.33;25.55;;;;;;;-2.95;73.67;100131.12;3022198;78;21030;-67
2021/12/26 15:59:31;;;;;;;54.08;32.45;;;;;;;-3.05;74.24;100130.52;3022579;78;20971;-74
2021/12/26 16:03:32;;;;;;;50.70;31.07;;;;;;;-3.13;74.45;100134.67;3021841;77;20948;-74
2021/12/26 16:07:34;;;;;;;67.32;33.13;;;;;;;-3.19;74.99;100137.42;3021771;78;21018;-75
2021/12/26 16:11:38;;;;;;;65.92;32.25;;;;;;;-3.23;75.22;100132.77;3022027;77;21010;-75
2021/12/26 16:15:40;;;;;;;68.95;39.13;;;;;;;-3.25;75.24;100129.79;3022123;78;21074;-73
2021/12/26 16:19:41;;;;;;;67.87;41.80;;;;;;;-3.34;75.80;100129.16;3021731;78;21379;-75
2021/12/26 16:23:43;;;;;;;72.22;42.33;;;;;;;-3.37;76.06;100126.61;3020928;78;21058;-75
2021/12/26 16:27:48;;;;;;;84.13;44.15;;;;;;;-3.36;76.07;100129.62;3021399;78;21014;-75
2021/12/26 16:31:50;;;;;;;83.67;44.38;;;;;;;-3.33;76.11;100138.66;3022222;78;21081;-75
2021/12/26 16:35:51;;;;;;;80.32;42.33;;;;;;;-3.30;75.95;100133.38;3021280;78;20987;-70
2021/12/26 16:39:53;;;;;;;61.92;41.73;;;;;;;-3.31;75.93;100140.78;3020664;78;20974;-74
2021/12/26 16:43:54;;;;;;;72.80;42.17;;;;;;;-3.30;75.60;100138.58;3021518;77;21026;-75
2021/12/26 16:47:56;;;;;;;72.35;41.30;;;;;;;-3.31;75.44;100145.11;3021310;78;21014;-74
2021/12/26 16:51:58;;;;;;;76.57;42.03;;;;;;;-3.26;75.33;100138.49;3021511;78;21030;-73
2021/12/26 16:56:00;;;;;;;75.12;43.55;;;;;;;-3.37;75.07;100135.72;3021687;78;21050;-74
2021/12/26 17:00:07;;;;;;;70.10;36.88;;;;;;;-3.42;75.06;100138.89;3021789;78;21047;-68
2021/12/26 17:04:08;;;;;;;;;;;;;;;-3.57;74.53;100138.86;3024083;78;21035;-74
2021/12/26 17:08:10;;;;;;;57.80;33.90;;;;;;;-3.79;75.13;100141.13;3021311;77;20471;-72
2021/12/26 17:12:14;;;;;;;68.80;39.83;;;;;;;-4.03;76.54;100142.14;3006987;78;21097;-75
2021/12/26 17:16:16;;;;;;;66.77;38.78;;;;;;;-4.25;78.00;100136.16;2993148;77;21054;-72
2021/12/26 17:20:17;;;;;;;74.07;38.80;;;;;;;-4.21;78.32;100140.38;2994355;77;21014;-78
2021/12/26 17:24:19;;;;;;;85.42;45.12;;;;;;;-4.19;78.52;100146.39;2988208;77;21093;-73
2021/12/26 17:28:21;;;;;;;78.05;43.98;;;;;;;-4.17;77.96;100151.56;2998175;78;21002;-75
2021/12/26 17:32:24;;;;;;;82.67;42.23;;;;;;;-4.02;77.87;100155.55;2981554;79;20988;-74
2021/12/26 17:36:27;;;;;;;73.10;41.53;;;;;;;-3.84;77.05;100163.80;2996305;79;21013;-74
2021/12/26 17:40:29;;;;;;;74.72;39.53;;;;;;;-3.80;75.78;100174.52;2996490;79;20994;-74
2021/12/26 17:44:30;;;;;;;93.65;45.30;;;;;;;-3.93;75.78;100170.06;2996747;79;20978;-73
2021/12/26 17:48:32;;;;;;;79.85;40.45;;;;;;;-3.92;76.13;100166.14;2997008;79;21033;-74
2021/12/26 17:52:34;;;;;;;79.55;41.05;;;;;;;-3.87;75.61;100162.98;2997413;79;21022;-69
2021/12/26 17:56:36;;;;;;;80.12;44.45;;;;;;;-3.88;75.21;100155.20;3000367;77;21101;-74
2021/12/26 18:00:37;;;;;;;74.53;40.88;;;;;;;-3.87;75.09;100159.08;2998993;78;21061;-71
2021/12/26 18:04:40;;;;;;;61.50;35.60;;;;;;;-3.83;74.97;100163.77;3011914;77;20971;-69
2021/12/26 18:08:42;;;;;;;77.47;42.50;;;;;;;-4.11;74.69;100163.56;2983752;78;21053;-73
2021/12/26 18:12:46;;;;;;;79.30;44.48;;;;;;;-4.28;75.39;100162.20;3016197;78;21034;-73
2021/12/26 18:16:47;;;;;;;80.47;43.50;;;;;;;-4.46;76.06;100160.42;2977986;77;21085;-75
2021/12/26 18:20:50;;;;;;;85.97;45.05;;;;;;;-4.42;76.11;100165.11;2963665;80;20981;-75
2021/12/26 18:24:52;;;;;;;89.83;46.73;;;;;;;-4.36;75.74;100161.07;2963439;79;21443;-70
2021/12/26 18:28:57;;;;;;;85.65;45.00;;;;;;;-4.33;75.26;100163.59;2963073;80;21018;-68
2021/12/26 18:33:00;;;;;;;75.70;42.60;;;;;;;-4.32;75.06;100160.11;3000077;78;21030;-73
2021/12/26 18:37:02;;;;;;;81.50;42.55;;;;;;;-4.35;74.98;100164.51;3016623;78;21007;-73